createdAt,value
2023-02-18T00:01:24.082Z,102808.06
2023-02-18T00:03:53.110Z,102806.37
2023-02-18T00:06:34.662Z,102807.18
2023-02-18T00:09:04.287Z,102805.52
2023-02-18T00:11:35.049Z,102801.00
2023-02-18T00:14:04.433Z,102801.39
2023-02-18T00:16:32.930Z,102796.00
2023-02-18T00:19:05.092Z,102801.72
2023-02-18T00:21:35.669Z,102791.52
2023-02-18T00:24:03.700Z,102789.91
2023-02-18T00:26:31.567Z,102794.82
2023-02-18T00:28:59.487Z,102783.38
2023-02-18T00:31:32.866Z,102779.32
2023-02-18T00:34:01.517Z,102779.32
2023-02-18T00:36:30.048Z,102780.59
2023-02-18T00:39:04.720Z,102791.68
2023-02-18T00:41:32.850Z,102778.34
2023-02-18T00:44:00.814Z,102787.37
2023-02-18T00:46:29.782Z,102785.41
2023-02-18T00:48:58.012Z,102785.89
2023-02-18T00:51:26.713Z,102776.12
2023-02-18T00:53:55.049Z,102777.30
2023-02-18T00:56:22.819Z,102780.56
2023-02-18T00:58:51.505Z,102774.45
2023-02-18T01:01:20.200Z,102780.99
2023-02-18T01:03:47.993Z,102778.11
2023-02-18T01:06:15.969Z,102786.32
2023-02-18T01:08:44.315Z,102776.90
2023-02-18T01:11:13.130Z,102769.91
2023-02-18T01:13:41.716Z,102777.26
2023-02-18T01:16:10.708Z,102753.09
2023-02-18T01:18:39.758Z,102760.06
2023-02-18T01:21:09.766Z,102749.79
2023-02-18T01:23:41.399Z,102749.79
2023-02-18T01:26:10.414Z,102748.52
2023-02-18T01:28:38.530Z,102750.61
2023-02-18T01:31:13.730Z,102745.31
2023-02-18T01:33:42.168Z,102750.22
2023-02-18T01:36:11.209Z,102756.04
2023-02-18T01:38:39.459Z,102747.47
2023-02-18T01:41:07.652Z,102752.77
2023-02-18T01:43:36.167Z,102749.56
2023-02-18T01:46:16.984Z,102752.41
2023-02-18T01:48:47.322Z,102752.05
2023-02-18T01:51:26.736Z,102759.47
2023-02-18T01:54:07.654Z,102764.02
2023-02-18T01:56:51.069Z,102759.21
2023-02-18T01:59:25.239Z,102744.53
2023-02-18T02:01:54.145Z,102738.45
2023-02-18T02:04:23.032Z,102731.91
2023-02-18T02:06:50.842Z,102749.17
2023-02-18T02:09:21.508Z,102740.21
2023-02-18T02:11:58.083Z,102740.21
2023-02-18T02:14:53.836Z,102738.25
2023-02-18T02:17:59.158Z,102745.94
2023-02-18T02:20:47.090Z,102745.94
2023-02-18T02:23:20.565Z,102747.18
2023-02-18T02:26:24.798Z,102746.30
2023-02-18T02:29:11.116Z,102739.33
2023-02-18T02:32:04.361Z,102741.32
2023-02-18T02:34:59.328Z,102740.84
2023-02-18T02:38:00.972Z,102723.66
2023-02-18T02:40:50.040Z,102718.70
2023-02-18T02:43:29.054Z,102709.64
2023-02-18T02:46:10.589Z,102701.85
2023-02-18T02:48:47.898Z,102703.82
2023-02-18T02:51:29.162Z,102703.82
2023-02-18T02:54:09.335Z,102702.57
2023-02-18T02:56:37.099Z,102697.31
2023-02-18T02:59:09.087Z,102690.67
2023-02-18T03:02:19.667Z,102689.88
2023-02-18T03:05:41.302Z,102691.49
2023-02-18T03:08:33.103Z,102691.91
2023-02-18T03:11:08.566Z,102680.83
2023-02-18T03:13:38.926Z,102682.07
2023-02-18T03:16:30.901Z,102676.77
2023-02-18T03:19:03.352Z,102670.27
2023-02-18T03:21:36.568Z,102671.05
2023-02-18T03:24:14.703Z,102666.24
2023-02-18T03:26:48.239Z,102668.56
2023-02-18T03:29:18.455Z,102672.69
2023-02-18T03:31:50.448Z,102666.15
2023-02-18T03:34:25.158Z,102679.55
2023-02-18T03:36:54.581Z,102665.23
2023-02-18T03:39:26.480Z,102673.05
2023-02-18T03:41:54.774Z,102673.05
2023-02-18T03:44:22.833Z,102671.45
2023-02-18T03:46:50.570Z,102681.19
2023-02-18T03:49:18.282Z,102670.20
2023-02-18T03:51:46.195Z,102672.23
2023-02-18T03:54:15.688Z,102674.65
2023-02-18T03:56:43.760Z,102670.20
2023-02-18T03:59:13.070Z,102670.53
2023-02-18T04:01:41.514Z,102664.91
2023-02-18T04:04:09.327Z,102669.35
2023-02-18T04:06:37.287Z,102676.71
2023-02-18T04:09:09.856Z,102670.98
2023-02-18T04:11:39.748Z,102668.92
2023-02-18T04:14:08.408Z,102674.74
2023-02-18T04:16:36.296Z,102689.88
2023-02-18T04:19:04.093Z,102680.83
2023-02-18T04:21:31.859Z,102682.43
2023-02-18T04:23:59.557Z,102677.95
2023-02-18T04:26:27.319Z,102686.55
2023-02-18T04:28:54.947Z,102677.95
2023-02-18T04:31:22.791Z,102671.05
2023-02-18T04:33:50.548Z,102678.87
2023-02-18T04:36:18.207Z,102669.45
2023-02-18T04:38:45.892Z,102667.48
2023-02-18T04:41:14.063Z,102652.34
2023-02-18T04:43:41.684Z,102651.56
2023-02-18T04:46:09.667Z,102655.75
2023-02-18T04:48:37.592Z,102660.23
2023-02-18T04:51:05.816Z,102655.42
2023-02-18T04:53:33.527Z,102660.78
2023-02-18T04:56:01.659Z,102669.80
2023-02-18T04:58:29.380Z,102660.39
2023-02-18T05:01:01.818Z,102655.91
2023-02-18T05:03:31.278Z,102663.27
2023-02-18T05:05:59.834Z,102651.37
2023-02-18T05:08:27.655Z,102655.06
2023-02-18T05:10:55.406Z,102649.70
2023-02-18T05:13:23.999Z,102662.38
2023-02-18T05:15:52.052Z,102652.97
2023-02-18T05:18:19.769Z,102663.53
2023-02-18T05:20:47.435Z,102650.84
2023-02-18T05:23:15.845Z,102652.09
2023-02-18T05:25:43.494Z,102649.21
2023-02-18T05:28:11.148Z,102658.20
2023-02-18T05:30:39.047Z,102651.98
2023-02-18T05:33:06.757Z,102644.66
2023-02-18T05:35:34.624Z,102643.42
2023-02-18T05:38:02.381Z,102640.54
2023-02-18T05:40:30.188Z,102645.38
2023-02-18T05:42:57.873Z,102647.45
2023-02-18T05:45:25.588Z,102642.54
2023-02-18T05:47:53.305Z,102647.45
2023-02-18T05:50:21.171Z,102635.63
2023-02-18T05:52:48.912Z,102649.96
2023-02-18T05:55:16.670Z,102649.14
2023-02-18T05:57:44.352Z,102643.42
2023-02-18T06:00:12.738Z,102653.27
2023-02-18T06:02:40.732Z,102651.66
2023-02-18T06:05:08.818Z,102648.42
2023-02-18T06:07:36.764Z,102639.56
2023-02-18T06:10:05.728Z,102643.23
2023-02-18T06:12:33.599Z,102636.36
2023-02-18T06:15:01.261Z,102639.66
2023-02-18T06:17:28.925Z,102636.09
2023-02-18T06:19:56.643Z,102635.70
2023-02-18T06:22:24.284Z,102639.46
2023-02-18T06:24:51.980Z,102648.13
2023-02-18T06:27:19.689Z,102648.59
2023-02-18T06:29:47.317Z,102650.29
2023-02-18T06:32:15.075Z,102637.56
2023-02-18T06:34:42.917Z,102649.11
2023-02-18T06:37:10.606Z,102645.80
2023-02-18T06:39:39.828Z,102647.51
2023-02-18T06:42:07.407Z,102644.63
2023-02-18T06:44:37.500Z,102643.02
2023-02-18T06:47:05.567Z,102635.70
2023-02-18T06:49:33.274Z,102641.00
2023-02-18T06:52:00.848Z,102643.02
2023-02-18T06:54:28.529Z,102638.91
2023-02-18T06:56:56.314Z,102640.51
2023-02-18T06:59:24.070Z,102634.00
2023-02-18T07:01:51.700Z,102632.83
2023-02-18T07:04:19.434Z,102631.22
2023-02-18T07:06:47.057Z,102633.74
2023-02-18T07:09:14.752Z,102641.85
2023-02-18T07:11:42.592Z,102626.38
2023-02-18T07:14:10.326Z,102639.01
2023-02-18T07:16:38.039Z,102635.70
2023-02-18T07:19:05.772Z,102649.93
2023-02-18T07:21:33.532Z,102647.41
2023-02-18T07:24:01.235Z,102644.92
2023-02-18T07:26:29.022Z,102647.70
2023-02-18T07:28:56.792Z,102652.51
2023-02-18T07:31:24.628Z,102647.54
2023-02-18T07:33:52.409Z,102649.41
2023-02-18T07:36:20.080Z,102646.76
2023-02-18T07:38:47.931Z,102648.52
2023-02-18T07:41:22.102Z,102642.63
2023-02-18T07:43:50.463Z,102637.08
2023-02-18T07:46:18.488Z,102640.12
2023-02-18T07:48:46.292Z,102642.34
2023-02-18T07:51:14.582Z,102639.85
2023-02-18T07:53:42.916Z,102648.78
2023-02-18T07:56:10.978Z,102641.36
2023-02-18T07:58:40.146Z,102651.43
2023-02-18T08:01:15.767Z,102647.70
2023-02-18T08:03:44.144Z,102648.75
2023-02-18T08:06:23.305Z,102647.28
2023-02-18T08:08:51.099Z,102646.69
2023-02-18T08:11:19.803Z,102663.34
2023-02-18T08:13:49.272Z,102663.20
2023-02-18T08:16:19.004Z,102659.57
2023-02-18T08:18:48.958Z,102664.38
2023-02-18T08:21:18.496Z,102658.76
2023-02-18T08:23:46.321Z,102652.22
2023-02-18T08:26:14.905Z,102659.38
2023-02-18T08:28:42.990Z,102657.61
2023-02-18T08:31:18.173Z,102658.33
2023-02-18T08:33:45.898Z,102661.47
2023-02-18T08:36:13.678Z,102651.01
2023-02-18T08:38:41.397Z,102648.26
2023-02-18T08:41:10.724Z,102650.58
2023-02-18T08:43:38.986Z,102656.56
2023-02-18T08:46:06.927Z,102652.41
2023-02-18T08:48:34.770Z,102648.98
2023-02-18T08:51:12.849Z,102653.82
2023-02-18T08:53:41.152Z,102638.97
2023-02-18T08:56:11.895Z,102636.95
2023-02-18T08:58:39.924Z,102646.00
2023-02-18T09:01:10.338Z,102645.31
2023-02-18T09:03:39.068Z,102639.56
2023-02-18T09:06:07.377Z,102643.71
2023-02-18T09:08:35.116Z,102642.11
2023-02-18T09:11:09.225Z,102631.88
2023-02-18T09:13:37.093Z,102633.35
2023-02-18T09:16:11.829Z,102624.42
2023-02-18T09:18:39.902Z,102613.95
2023-02-18T09:21:10.769Z,102613.53
2023-02-18T09:23:38.817Z,102613.95
2023-02-18T09:26:08.548Z,102611.66
2023-02-18T09:28:37.691Z,102622.59
2023-02-18T09:31:14.240Z,102603.20
2023-02-18T09:33:45.921Z,102606.41
2023-02-18T09:36:14.459Z,102609.05
2023-02-18T09:38:42.223Z,102605.23
2023-02-18T09:41:31.384Z,102615.33
2023-02-18T09:44:05.132Z,102599.27
2023-02-18T09:46:39.972Z,102602.67
2023-02-18T09:49:29.707Z,102601.95
2023-02-18T09:52:03.669Z,102599.80
2023-02-18T09:54:31.322Z,102595.97
2023-02-18T09:57:00.955Z,102599.99
2023-02-18T09:59:29.544Z,102602.38
2023-02-18T10:01:58.223Z,102604.93
2023-02-18T10:04:33.253Z,102596.66
2023-02-18T10:07:04.781Z,102604.02
2023-02-18T10:09:42.094Z,102591.91
2023-02-18T10:12:20.048Z,102602.02
2023-02-18T10:14:55.924Z,102595.68
2023-02-18T10:17:31.033Z,102597.15
2023-02-18T10:20:01.444Z,102589.01
2023-02-18T10:22:31.345Z,102606.14
2023-02-18T10:25:01.974Z,102603.00
2023-02-18T10:27:36.437Z,102592.31
2023-02-18T10:30:20.146Z,102593.78
2023-02-18T10:32:49.749Z,102592.77
2023-02-18T10:35:32.317Z,102593.78
2023-02-18T10:38:14.441Z,102590.41
2023-02-18T10:41:09.613Z,102589.37
2023-02-18T10:44:01.609Z,102574.00
2023-02-18T10:46:54.245Z,102583.05
2023-02-18T10:49:56.054Z,102564.22
2023-02-18T10:52:24.649Z,102596.16
2023-02-18T10:55:08.227Z,102579.66
2023-02-18T10:57:36.542Z,102582.07
2023-02-18T11:00:28.965Z,102572.03
2023-02-18T11:03:20.204Z,102565.04
2023-02-18T11:05:50.346Z,102570.66
2023-02-18T11:08:30.457Z,102563.14
2023-02-18T11:10:59.313Z,102568.44
2023-02-18T11:13:33.979Z,102551.70
2023-02-18T11:16:13.220Z,102566.48
2023-02-18T11:18:43.978Z,102554.18
2023-02-18T11:21:46.830Z,102540.94
2023-02-18T11:24:17.823Z,102543.39
2023-02-18T11:26:45.941Z,102528.05
2023-02-18T11:29:22.076Z,102528.41
2023-02-18T11:31:53.906Z,102534.76
2023-02-18T11:34:24.704Z,102541.79
2023-02-18T11:36:53.769Z,102498.63
2023-02-18T11:39:30.131Z,102518.47
2023-02-18T11:42:01.730Z,102513.01
2023-02-18T11:44:39.600Z,102510.16
2023-02-18T11:47:16.243Z,102507.32
2023-02-18T11:49:46.106Z,102496.30
2023-02-18T11:52:28.618Z,102499.05
2023-02-18T11:55:07.454Z,102485.12
2023-02-18T11:57:38.353Z,102477.92
2023-02-18T12:00:23.171Z,102483.55
2023-02-18T12:02:52.046Z,102477.30
2023-02-18T12:05:26.018Z,102465.47
2023-02-18T12:08:00.892Z,102463.08
2023-02-18T12:10:34.224Z,102470.44
2023-02-18T12:13:12.219Z,102469.98
2023-02-18T12:16:14.510Z,102453.01
2023-02-18T12:19:22.294Z,102450.26
2023-02-18T12:22:23.338Z,102472.98
2023-02-18T12:25:14.970Z,102451.08
2023-02-18T12:28:15.835Z,102444.80
2023-02-18T12:31:17.410Z,102445.12
2023-02-18T12:33:48.014Z,102443.03
2023-02-18T12:36:39.631Z,102439.83
2023-02-18T12:39:47.629Z,102432.47
2023-02-18T12:42:33.940Z,102422.56
2023-02-18T12:45:36.237Z,102429.59
2023-02-18T12:48:37.468Z,102412.30
2023-02-18T12:51:16.961Z,102413.60
2023-02-18T12:54:23.492Z,102409.41
2023-02-18T12:57:17.135Z,102407.98
2023-02-18T13:00:17.111Z,102389.93
2023-02-18T13:03:15.254Z,102393.43
2023-02-18T13:05:51.645Z,102382.08
2023-02-18T13:08:34.469Z,102372.47
2023-02-18T13:11:05.605Z,102371.71
2023-02-18T13:13:42.252Z,102369.46
2023-02-18T13:16:21.052Z,102376.16
2023-02-18T13:18:57.274Z,102374.72
2023-02-18T13:21:25.475Z,102375.05
2023-02-18T13:23:59.665Z,102358.41
2023-02-18T13:26:30.217Z,102351.84
2023-02-18T13:29:31.083Z,102354.19
2023-02-18T13:32:27.164Z,102352.29
2023-02-18T13:35:08.294Z,102347.62
2023-02-18T13:37:54.017Z,102340.59
2023-02-18T13:40:26.725Z,102336.07
2023-02-18T13:42:55.241Z,102337.18
2023-02-18T13:45:29.156Z,102346.27
2023-02-18T13:47:58.072Z,102342.32
2023-02-18T13:50:28.962Z,102335.88
2023-02-18T13:53:08.615Z,102336.34
2023-02-18T13:55:39.308Z,102345.00
2023-02-18T13:58:25.700Z,102347.88
2023-02-18T14:01:25.139Z,102336.53
2023-02-18T14:03:59.135Z,102331.59
2023-02-18T14:06:38.715Z,102323.25
2023-02-18T14:09:27.022Z,102320.87
2023-02-18T14:12:17.354Z,102318.77
2023-02-18T14:14:45.514Z,102315.24
2023-02-18T14:17:31.607Z,102304.35
2023-02-18T14:20:02.321Z,102323.58
2023-02-18T14:22:32.663Z,102315.41
2023-02-18T14:25:23.890Z,102311.55
2023-02-18T14:27:54.070Z,102303.08
2023-02-18T14:30:24.676Z,102305.46
2023-02-18T14:32:57.502Z,102317.17
2023-02-18T14:35:52.966Z,102324.23
2023-02-18T14:38:45.135Z,102317.34
2023-02-18T14:41:55.686Z,102308.90
2023-02-18T14:44:45.068Z,102314.33
2023-02-18T14:47:24.936Z,102312.30
2023-02-18T14:50:00.867Z,102312.95
2023-02-18T14:52:41.707Z,102309.42
2023-02-18T14:55:37.457Z,102305.46
2023-02-18T14:58:12.227Z,102312.16
2023-02-18T15:00:44.383Z,102307.23
2023-02-18T15:03:18.950Z,102300.52
2023-02-18T15:05:47.522Z,102299.88
2023-02-18T15:08:24.122Z,102295.23
2023-02-18T15:10:59.933Z,102302.75
2023-02-18T15:13:47.453Z,102306.41
2023-02-18T15:16:24.796Z,102316.02
2023-02-18T15:18:59.973Z,102306.58
2023-02-18T15:21:36.548Z,102313.15
2023-02-18T15:24:38.068Z,102304.68
2023-02-18T15:27:13.846Z,102301.60
2023-02-18T15:29:41.787Z,102310.70
2023-02-18T15:32:23.675Z,102304.32
2023-02-18T15:34:54.308Z,102290.55
2023-02-18T15:37:22.019Z,102301.73
2023-02-18T15:39:49.875Z,102312.27
2023-02-18T15:42:33.157Z,102307.95
2023-02-18T15:45:20.987Z,102303.14
2023-02-18T15:47:52.628Z,102307.13
2023-02-18T15:50:37.534Z,102302.78
2023-02-18T15:53:14.788Z,102305.04
2023-02-18T15:55:44.947Z,102307.39
2023-02-18T15:58:18.062Z,102289.02
2023-02-18T16:00:55.228Z,102296.05
2023-02-18T16:03:31.727Z,102296.18
2023-02-18T16:06:22.852Z,102290.91
2023-02-18T16:09:31.629Z,102279.73
2023-02-18T16:12:03.221Z,102285.95
2023-02-18T16:14:33.438Z,102285.26
2023-02-18T16:17:16.594Z,102283.85
2023-02-18T16:20:04.382Z,102278.52
2023-02-18T16:22:32.725Z,102281.52
2023-02-18T16:25:22.067Z,102281.00
2023-02-18T16:27:58.826Z,102286.23
2023-02-18T16:30:30.203Z,102282.84
2023-02-18T16:32:59.090Z,102275.64
2023-02-18T16:35:44.005Z,102268.25
2023-02-18T16:38:23.918Z,102268.38
2023-02-18T16:40:53.275Z,102273.94
2023-02-18T16:43:29.952Z,102282.31
2023-02-18T16:46:00.031Z,102287.38
2023-02-18T16:48:29.379Z,102287.05
2023-02-18T16:50:57.551Z,102286.40
2023-02-18T16:53:25.432Z,102288.46
2023-02-18T16:55:53.180Z,102289.41
2023-02-18T16:58:20.907Z,102299.28
2023-02-18T17:00:51.114Z,102298.27
2023-02-18T17:03:19.568Z,102299.19
2023-02-18T17:05:47.782Z,102305.07
2023-02-18T17:08:17.460Z,102310.80
2023-02-18T17:10:45.732Z,102304.41
2023-02-18T17:13:22.382Z,102304.52
2023-02-18T17:15:53.024Z,102305.10
2023-02-18T17:18:21.314Z,102302.36
2023-02-18T17:20:50.092Z,102297.68
2023-02-18T17:23:20.100Z,102306.77
2023-02-18T17:25:51.848Z,102309.42
2023-02-18T17:28:20.479Z,102300.00
2023-02-18T17:30:53.706Z,102314.36
2023-02-18T17:33:21.467Z,102311.48
2023-02-18T17:35:49.413Z,102307.82
2023-02-18T17:38:19.637Z,102298.86
2023-02-18T17:40:47.479Z,102311.61
2023-02-18T17:43:16.769Z,102316.19
2023-02-18T17:45:53.917Z,102313.09
2023-02-18T17:48:21.918Z,102315.77
2023-02-18T17:50:49.646Z,102320.38
2023-02-18T17:53:18.681Z,102324.63
2023-02-18T17:55:48.208Z,102328.38
2023-02-18T17:58:17.262Z,102325.28
2023-02-18T18:00:51.827Z,102324.95
2023-02-18T18:03:20.514Z,102327.93
2023-02-18T18:05:50.919Z,102327.60
2023-02-18T18:08:19.196Z,102336.70
2023-02-18T18:10:50.998Z,102340.45
2023-02-18T18:13:27.279Z,102342.97
2023-02-18T18:15:57.643Z,102341.04
2023-02-18T18:18:26.743Z,102337.34
2023-02-18T18:21:02.360Z,102340.68
2023-02-18T18:23:30.438Z,102341.59
2023-02-18T18:25:59.769Z,102344.12
2023-02-18T18:28:28.275Z,102348.70
2023-02-18T18:30:57.773Z,102342.61
2023-02-18T18:33:31.604Z,102338.59
2023-02-18T18:36:00.517Z,102341.14
2023-02-18T18:38:30.619Z,102347.09
2023-02-18T18:40:58.372Z,102348.70
2023-02-18T18:43:33.165Z,102340.65
2023-02-18T18:46:01.552Z,102351.77
2023-02-18T18:48:29.548Z,102350.30
2023-02-18T18:50:59.943Z,102358.18
2023-02-18T18:53:35.671Z,102357.81
2023-02-18T18:56:09.452Z,102357.03
2023-02-18T18:58:37.179Z,102354.61
2023-02-18T19:01:08.293Z,102353.44
2023-02-18T19:03:38.784Z,102352.29
2023-02-18T19:06:06.893Z,102352.75
2023-02-18T19:08:35.414Z,102358.93
2023-02-18T19:11:03.511Z,102357.06
2023-02-18T19:13:33.243Z,102362.36
2023-02-18T19:16:16.141Z,102365.66
2023-02-18T19:18:43.888Z,102362.79
2023-02-18T19:21:13.283Z,102367.40
2023-02-18T19:23:41.487Z,102371.12
2023-02-18T19:26:09.894Z,102372.40
2023-02-18T19:28:37.811Z,102375.24
2023-02-18T19:31:11.052Z,102380.22
2023-02-18T19:33:40.243Z,102376.52
2023-02-18T19:36:12.728Z,102383.52
2023-02-18T19:38:40.636Z,102385.55
2023-02-18T19:41:13.924Z,102378.58
2023-02-18T19:43:43.869Z,102382.70
2023-02-18T19:46:14.479Z,102391.27
2023-02-18T19:48:43.132Z,102389.34
2023-02-18T19:51:11.394Z,102392.19
2023-02-18T19:53:39.308Z,102391.76
2023-02-18T19:56:08.547Z,102389.34
2023-02-18T19:58:37.267Z,102386.82
2023-02-18T20:01:05.439Z,102396.99
2023-02-18T20:03:33.129Z,102394.15
2023-02-18T20:06:00.924Z,102385.12
2023-02-18T20:08:28.643Z,102392.87
2023-02-18T20:11:00.282Z,102394.05
2023-02-18T20:13:28.385Z,102409.98
2023-02-18T20:15:56.285Z,102396.47
2023-02-18T20:18:24.195Z,102401.77
2023-02-18T20:20:52.731Z,102396.47
2023-02-18T20:23:20.479Z,102395.20
2023-02-18T20:25:48.757Z,102402.55
2023-02-18T20:28:16.842Z,102403.79
2023-02-18T20:30:45.346Z,102406.21
2023-02-18T20:33:15.434Z,102403.79
2023-02-18T20:35:43.119Z,102399.31
2023-02-18T20:38:11.041Z,102405.07
2023-02-18T20:40:38.847Z,102407.09
2023-02-18T20:43:06.595Z,102400.09
2023-02-18T20:45:34.506Z,102408.70
2023-02-18T20:48:02.196Z,102402.19
2023-02-18T20:50:30.046Z,102401.87
2023-02-18T20:52:57.653Z,102398.98
2023-02-18T20:55:25.375Z,102397.38
2023-02-18T20:57:53.199Z,102400.69
2023-02-18T21:00:20.955Z,102405.59
2023-02-18T21:02:48.740Z,102401.11
2023-02-18T21:05:16.673Z,102394.27
2023-02-18T21:07:44.418Z,102407.75
2023-02-18T21:10:12.136Z,102405.33
2023-02-18T21:12:39.857Z,102405.46
2023-02-18T21:15:07.823Z,102400.98
2023-02-18T21:17:35.496Z,102396.96
2023-02-18T21:20:03.101Z,102405.20
2023-02-18T21:22:30.875Z,102396.24
2023-02-18T21:25:00.234Z,102393.49
2023-02-18T21:27:27.956Z,102393.13
2023-02-18T21:29:56.177Z,102393.63
2023-02-18T21:32:24.051Z,102398.17
2023-02-18T21:34:52.027Z,102398.27
2023-02-18T21:37:19.738Z,102402.81
2023-02-18T21:39:47.586Z,102396.77
2023-02-18T21:42:15.266Z,102395.68
2023-02-18T21:44:43.385Z,102388.00
2023-02-18T21:47:11.811Z,102380.77
2023-02-18T21:49:39.667Z,102380.84
2023-02-18T21:52:10.565Z,102378.55
2023-02-18T21:54:41.058Z,102386.79
2023-02-18T21:57:14.749Z,102375.08
2023-02-18T21:59:43.181Z,102380.54
2023-02-18T22:02:17.938Z,102372.04
2023-02-18T22:04:46.741Z,102376.26
2023-02-18T22:07:14.559Z,102385.71
2023-02-18T22:09:42.391Z,102368.64
2023-02-18T22:12:10.894Z,102376.88
2023-02-18T22:14:39.607Z,102376.98
2023-02-18T22:17:07.714Z,102376.23
2023-02-18T22:19:35.746Z,102370.99
2023-02-18T22:22:03.999Z,102373.91
2023-02-18T22:24:32.775Z,102367.46
2023-02-18T22:27:03.855Z,102363.02
2023-02-18T22:29:33.266Z,102363.02
2023-02-18T22:32:01.468Z,102356.93
2023-02-18T22:34:29.549Z,102361.41
2023-02-18T22:36:57.281Z,102358.99
2023-02-18T22:39:25.617Z,102354.52
2023-02-18T22:41:53.314Z,102358.63
2023-02-18T22:44:21.574Z,102360.23
2023-02-18T22:46:49.303Z,102354.97
2023-02-18T22:49:17.133Z,102348.92
2023-02-18T22:51:45.544Z,102350.95
2023-02-18T22:54:17.939Z,102347.32
2023-02-18T22:56:47.623Z,102355.49
2023-02-18T22:59:17.310Z,102345.33
2023-02-18T23:01:50.698Z,102345.39
2023-02-18T23:04:19.963Z,102353.34
2023-02-18T23:06:48.266Z,102345.33
2023-02-18T23:09:19.461Z,102345.33
2023-02-18T23:11:50.413Z,102352.72
2023-02-18T23:14:22.466Z,102345.39
2023-02-18T23:17:19.898Z,102355.66
2023-02-18T23:19:50.305Z,102351.99
2023-02-18T23:22:20.484Z,102350.00
2023-02-18T23:24:48.549Z,102350.36
2023-02-18T23:27:17.203Z,102350.82
2023-02-18T23:29:44.951Z,102347.16
2023-02-18T23:32:12.756Z,102349.22
2023-02-18T23:34:40.595Z,102344.77
2023-02-18T23:37:08.464Z,102346.38
2023-02-18T23:39:36.374Z,102343.95
2023-02-18T23:42:04.411Z,102337.05
2023-02-18T23:44:32.177Z,102341.53
2023-02-18T23:47:01.310Z,102339.41
2023-02-18T23:49:29.908Z,102333.23
2023-02-18T23:51:58.673Z,102335.58
2023-02-18T23:54:26.596Z,102341.99
2023-02-18T23:56:54.309Z,102334.60
2023-02-18T23:59:22.395Z,102333.69
